sensor_id;sensor_type;location;lat;lon;timestamp;pressure;altitude;pressure_sealevel;temperature;humidity
22031;BME280;11179;52.106;21.024;2024-01-30T00:00:04;102256.38;;;-1.10;72.18
22031;BME280;11179;52.106;21.024;2024-01-30T00:02:30;102261.75;;;-1.10;72.38
22031;BME280;11179;52.106;21.024;2024-01-30T00:04:56;102260.06;;;-1.11;72.39
22031;BME280;11179;52.106;21.024;2024-01-30T00:07:21;102252.97;;;-1.12;72.16
22031;BME280;11179;52.106;21.024;2024-01-30T00:09:47;102249.53;;;-1.14;72.20
22031;BME280;11179;52.106;21.024;2024-01-30T00:12:13;102248.56;;;-1.13;72.23
22031;BME280;11179;52.106;21.024;2024-01-30T00:14:41;102247.25;;;-1.18;72.25
22031;BME280;11179;52.106;21.024;2024-01-30T00:17:06;102245.41;;;-1.18;72.33
22031;BME280;11179;52.106;21.024;2024-01-30T00:19:32;102237.88;;;-1.24;72.22
22031;BME280;11179;52.106;21.024;2024-01-30T00:21:57;102241.28;;;-1.22;72.10
22031;BME280;11179;52.106;21.024;2024-01-30T00:24:22;102236.88;;;-1.23;72.27
22031;BME280;11179;52.106;21.024;2024-01-30T00:26:47;102226.81;;;-1.21;72.41
22031;BME280;11179;52.106;21.024;2024-01-30T00:29:13;102231.91;;;-1.18;72.65
22031;BME280;11179;52.106;21.024;2024-01-30T00:31:44;102221.84;;;-1.16;72.45
22031;BME280;11179;52.106;21.024;2024-01-30T00:34:10;102223.56;;;-1.15;72.61
22031;BME280;11179;52.106;21.024;2024-01-30T00:36:35;102223.69;;;-1.16;72.65
22031;BME280;11179;52.106;21.024;2024-01-30T00:39:00;102224.56;;;-1.16;72.49
22031;BME280;11179;52.106;21.024;2024-01-30T00:41:26;102227.97;;;-1.14;72.47
22031;BME280;11179;52.106;21.024;2024-01-30T00:43:51;102221.59;;;-1.13;72.65
22031;BME280;11179;52.106;21.024;2024-01-30T00:46:17;102214.50;;;-1.14;72.67
22031;BME280;11179;52.106;21.024;2024-01-30T00:48:42;102217.19;;;-1.14;72.73
22031;BME280;11179;52.106;21.024;2024-01-30T00:51:08;102221.00;;;-1.16;72.59
22031;BME280;11179;52.106;21.024;2024-01-30T00:53:33;102211.78;;;-1.14;72.71
22031;BME280;11179;52.106;21.024;2024-01-30T00:55:58;102207.78;;;-1.19;72.75
22031;BME280;11179;52.106;21.024;2024-01-30T00:58:23;102210.81;;;-1.13;72.76
22031;BME280;11179;52.106;21.024;2024-01-30T01:00:50;102212.19;;;-1.18;72.46
22031;BME280;11179;52.106;21.024;2024-01-30T01:03:15;102212.78;;;-1.15;72.67
22031;BME280;11179;52.106;21.024;2024-01-30T01:05:41;102213.63;;;-1.14;72.82
22031;BME280;11179;52.106;21.024;2024-01-30T01:08:06;102216.19;;;-1.13;72.82
22031;BME280;11179;52.106;21.024;2024-01-30T01:10:31;102217.06;;;-1.12;72.86
22031;BME280;11179;52.106;21.024;2024-01-30T01:12:56;102211.53;;;-1.11;72.65
22031;BME280;11179;52.106;21.024;2024-01-30T01:15:22;102214.09;;;-1.09;72.88
22031;BME280;11179;52.106;21.024;2024-01-30T01:17:47;102216.91;;;-1.11;72.75
22031;BME280;11179;52.106;21.024;2024-01-30T01:20:12;102216.91;;;-1.11;72.79
22031;BME280;11179;52.106;21.024;2024-01-30T01:22:38;102208.13;;;-1.13;72.80
22031;BME280;11179;52.106;21.024;2024-01-30T01:25:04;102205.81;;;-1.17;72.84
22031;BME280;11179;52.106;21.024;2024-01-30T01:27:32;102208.94;;;-1.22;72.63
22031;BME280;11179;52.106;21.024;2024-01-30T01:29:58;102214.03;;;-1.19;72.55
22031;BME280;11179;52.106;21.024;2024-01-30T01:32:23;102220.28;;;-1.18;72.56
22031;BME280;11179;52.106;21.024;2024-01-30T01:34:48;102222.28;;;-1.20;72.60
22031;BME280;11179;52.106;21.024;2024-01-30T01:37:14;102217.16;;;-1.23;72.51
22031;BME280;11179;52.106;21.024;2024-01-30T01:39:39;102216.31;;;-1.24;72.50
22031;BME280;11179;52.106;21.024;2024-01-30T01:42:04;102208.75;;;-1.30;72.44
22031;BME280;11179;52.106;21.024;2024-01-30T01:44:30;102207.03;;;-1.31;72.34
22031;BME280;11179;52.106;21.024;2024-01-30T01:46:56;102204.34;;;-1.31;72.40
22031;BME280;11179;52.106;21.024;2024-01-30T01:49:24;102204.91;;;-1.37;72.17
22031;BME280;11179;52.106;21.024;2024-01-30T01:51:51;102203.19;;;-1.38;72.05
22031;BME280;11179;52.106;21.024;2024-01-30T01:54:18;102195.66;;;-1.44;72.14
22031;BME280;11179;52.106;21.024;2024-01-30T01:56:43;102192.78;;;-1.52;72.23
22031;BME280;11179;52.106;21.024;2024-01-30T01:59:09;102212.25;;;-1.49;72.09
22031;BME280;11179;52.106;21.024;2024-01-30T02:01:37;102200.88;;;-1.52;72.17
22031;BME280;11179;52.106;21.024;2024-01-30T02:04:04;102202.56;;;-1.51;72.23
22031;BME280;11179;52.106;21.024;2024-01-30T02:06:29;102201.84;;;-1.53;72.26
22031;BME280;11179;52.106;21.024;2024-01-30T02:08:56;102198.19;;;-1.52;72.23
22031;BME280;11179;52.106;21.024;2024-01-30T02:11:22;102194.63;;;-1.53;72.32
22031;BME280;11179;52.106;21.024;2024-01-30T02:13:48;102193.31;;;-1.58;72.16
22031;BME280;11179;52.106;21.024;2024-01-30T02:16:13;102183.69;;;-1.61;72.19
22031;BME280;11179;52.106;21.024;2024-01-30T02:18:38;102187.50;;;-1.63;72.25
22031;BME280;11179;52.106;21.024;2024-01-30T02:21:08;102180.66;;;-1.68;72.37
22031;BME280;11179;52.106;21.024;2024-01-30T02:23:34;102194.00;;;-1.66;72.24
22031;BME280;11179;52.106;21.024;2024-01-30T02:25:59;102187.63;;;-1.65;72.36
22031;BME280;11179;52.106;21.024;2024-01-30T02:28:24;102194.00;;;-1.66;72.18
22031;BME280;11179;52.106;21.024;2024-01-30T02:30:50;102188.88;;;-1.69;72.37
22031;BME280;11179;52.106;21.024;2024-01-30T02:33:15;102188.75;;;-1.68;72.53
22031;BME280;11179;52.106;21.024;2024-01-30T02:35:41;102183.22;;;-1.66;72.40
22031;BME280;11179;52.106;21.024;2024-01-30T02:38:06;102183.22;;;-1.66;72.57
22031;BME280;11179;52.106;21.024;2024-01-30T02:40:31;102190.00;;;-1.72;72.69
22031;BME280;11179;52.106;21.024;2024-01-30T02:42:59;102197.09;;;-1.71;72.87
22031;BME280;11179;52.106;21.024;2024-01-30T02:45:24;102185.75;;;-1.74;72.92
22031;BME280;11179;52.106;21.024;2024-01-30T02:47:50;102185.88;;;-1.76;72.89
22031;BME280;11179;52.106;21.024;2024-01-30T02:50:15;102189.28;;;-1.74;73.10
22031;BME280;11179;52.106;21.024;2024-01-30T02:52:41;102189.28;;;-1.74;73.12
22031;BME280;11179;52.106;21.024;2024-01-30T02:55:09;102190.28;;;-1.75;73.07
22031;BME280;11179;52.106;21.024;2024-01-30T02:57:34;102188.56;;;-1.76;73.05
22031;BME280;11179;52.106;21.024;2024-01-30T03:00:00;102183.63;;;-1.71;73.52
22031;BME280;11179;52.106;21.024;2024-01-30T03:02:25;102179.50;;;-1.75;73.15
22031;BME280;11179;52.106;21.024;2024-01-30T03:04:50;102184.03;;;-1.75;73.24
22031;BME280;11179;52.106;21.024;2024-01-30T03:07:15;102182.91;;;-1.73;73.45
22031;BME280;11179;52.106;21.024;2024-01-30T03:09:41;102184.16;;;-1.77;73.47
22031;BME280;11179;52.106;21.024;2024-01-30T03:12:10;102184.16;;;-1.77;73.19
22031;BME280;11179;52.106;21.024;2024-01-30T03:14:35;102184.31;;;-1.78;73.38
22031;BME280;11179;52.106;21.024;2024-01-30T03:17:00;102178.91;;;-1.78;73.12
22031;BME280;11179;52.106;21.024;2024-01-30T03:19:26;102186.28;;;-1.80;73.25
22031;BME280;11179;52.106;21.024;2024-01-30T03:21:51;102179.72;;;-1.87;73.13
22031;BME280;11179;52.106;21.024;2024-01-30T03:24:16;102178.88;;;-1.88;73.08
22031;BME280;11179;52.106;21.024;2024-01-30T03:26:42;102176.56;;;-1.92;73.09
22031;BME280;11179;52.106;21.024;2024-01-30T03:29:08;102178.06;;;-2.00;72.99
22031;BME280;11179;52.106;21.024;2024-01-30T03:31:33;102182.63;;;-2.00;72.72
22031;BME280;11179;52.106;21.024;2024-01-30T03:33:59;102182.88;;;-2.03;73.07
22031;BME280;11179;52.106;21.024;2024-01-30T03:36:24;102181.19;;;-2.04;72.80
22031;BME280;11179;52.106;21.024;2024-01-30T03:38:49;102181.44;;;-2.07;72.76
22031;BME280;11179;52.106;21.024;2024-01-30T03:41:15;102182.41;;;-2.08;72.89
22031;BME280;11179;52.106;21.024;2024-01-30T03:43:40;102191.22;;;-2.06;72.96
22031;BME280;11179;52.106;21.024;2024-01-30T03:46:06;102187.78;;;-2.08;72.79
22031;BME280;11179;52.106;21.024;2024-01-30T03:48:31;102189.03;;;-2.12;72.88
22031;BME280;11179;52.106;21.024;2024-01-30T03:50:56;102188.34;;;-2.14;72.97
22031;BME280;11179;52.106;21.024;2024-01-30T03:53:22;102183.09;;;-2.16;72.84
22031;BME280;11179;52.106;21.024;2024-01-30T03:55:47;102184.06;;;-2.17;73.04
22031;BME280;11179;52.106;21.024;2024-01-30T03:58:12;102185.91;;;-2.17;73.02
22031;BME280;11179;52.106;21.024;2024-01-30T04:00:38;102185.66;;;-2.14;73.04
22031;BME280;11179;52.106;21.024;2024-01-30T04:03:03;102182.34;;;-2.18;73.00
22031;BME280;11179;52.106;21.024;2024-01-30T04:05:29;102196.78;;;-2.19;72.97
22031;BME280;11179;52.106;21.024;2024-01-30T04:07:54;102188.13;;;-2.22;72.90
22031;BME280;11179;52.106;21.024;2024-01-30T04:10:19;102177.63;;;-2.25;73.04
22031;BME280;11179;52.106;21.024;2024-01-30T04:12:45;102176.63;;;-2.24;73.06
22031;BME280;11179;52.106;21.024;2024-01-30T04:15:10;102187.41;;;-2.24;72.96
22031;BME280;11179;52.106;21.024;2024-01-30T04:17:35;102174.06;;;-2.26;72.88
22031;BME280;11179;52.106;21.024;2024-01-30T04:20:01;102173.22;;;-2.26;72.76
22031;BME280;11179;52.106;21.024;2024-01-30T04:22:26;102181.88;;;-2.23;72.99
22031;BME280;11179;52.106;21.024;2024-01-30T04:24:51;102176.63;;;-2.24;72.79
22031;BME280;11179;52.106;21.024;2024-01-30T04:27:17;102189.22;;;-2.25;73.34
22031;BME280;11179;52.106;21.024;2024-01-30T04:29:42;102169.94;;;-2.30;72.83
22031;BME280;11179;52.106;21.024;2024-01-30T04:32:07;102190.09;;;-2.24;73.03
22031;BME280;11179;52.106;21.024;2024-01-30T04:34:33;102181.56;;;-2.29;73.03
22031;BME280;11179;52.106;21.024;2024-01-30T04:36:58;102178.03;;;-2.30;72.71
22031;BME280;11179;52.106;21.024;2024-01-30T04:39:23;102176.19;;;-2.29;72.93
22031;BME280;11179;52.106;21.024;2024-01-30T04:41:49;102171.06;;;-2.32;72.90
22031;BME280;11179;52.106;21.024;2024-01-30T04:44:14;102174.59;;;-2.32;72.95
22031;BME280;11179;52.106;21.024;2024-01-30T04:46:39;102179.00;;;-2.31;73.05
22031;BME280;11179;52.106;21.024;2024-01-30T04:49:05;102175.59;;;-2.33;73.08
22031;BME280;11179;52.106;21.024;2024-01-30T04:51:32;102174.47;;;-2.30;73.07
22031;BME280;11179;52.106;21.024;2024-01-30T04:53:58;102178.28;;;-2.33;73.00
22031;BME280;11179;52.106;21.024;2024-01-30T04:56:23;102174.59;;;-2.32;72.92
22031;BME280;11179;52.106;21.024;2024-01-30T04:58:48;102177.41;;;-2.33;73.07
22031;BME280;11179;52.106;21.024;2024-01-30T05:01:17;102171.31;;;-2.36;73.14
22031;BME280;11179;52.106;21.024;2024-01-30T05:03:42;102173.41;;;-2.39;72.95
22031;BME280;11179;52.106;21.024;2024-01-30T05:06:08;102173.41;;;-2.39;73.25
22031;BME280;11179;52.106;21.024;2024-01-30T05:08:33;102177.81;;;-2.38;72.96
22031;BME280;11179;52.106;21.024;2024-01-30T05:11:01;102180.78;;;-2.41;73.17
22031;BME280;11179;52.106;21.024;2024-01-30T05:13:30;102171.38;;;-2.47;73.11
22031;BME280;11179;52.106;21.024;2024-01-30T05:15:55;102175.41;;;-2.41;72.83
22031;BME280;11179;52.106;21.024;2024-01-30T05:18:20;102165.50;;;-2.41;72.99
22031;BME280;11179;52.106;21.024;2024-01-30T05:20:45;102173.88;;;-2.34;73.17
22031;BME280;11179;52.106;21.024;2024-01-30T05:23:11;102167.78;;;-2.36;72.85
22031;BME280;11179;52.106;21.024;2024-01-30T05:25:36;102171.44;;;-2.37;72.97
22031;BME280;11179;52.106;21.024;2024-01-30T05:28:01;102172.03;;;-2.33;73.05
22031;BME280;11179;52.106;21.024;2024-01-30T05:30:26;102157.00;;;-2.36;72.87
22031;BME280;11179;52.106;21.024;2024-01-30T05:32:52;102163.25;;;-2.36;72.96
22031;BME280;11179;52.106;21.024;2024-01-30T05:35:17;102154.31;;;-2.36;73.06
22031;BME280;11179;52.106;21.024;2024-01-30T05:37:43;102163.97;;;-2.33;73.00
22031;BME280;11179;52.106;21.024;2024-01-30T05:40:08;102161.28;;;-2.33;73.04
22031;BME280;11179;52.106;21.024;2024-01-30T05:42:34;102152.47;;;-2.36;73.04
22031;BME280;11179;52.106;21.024;2024-01-30T05:45:00;102165.81;;;-2.34;72.97
22031;BME280;11179;52.106;21.024;2024-01-30T05:47:25;102167.16;;;-2.40;73.01
22031;BME280;11179;52.106;21.024;2024-01-30T05:49:50;102165.19;;;-2.38;73.20
22031;BME280;11179;52.106;21.024;2024-01-30T05:52:15;102161.78;;;-2.40;73.11
22031;BME280;11179;52.106;21.024;2024-01-30T05:54:41;102165.19;;;-2.38;73.21
22031;BME280;11179;52.106;21.024;2024-01-30T05:57:06;102174.59;;;-2.32;73.03
22031;BME280;11179;52.106;21.024;2024-01-30T05:59:32;102176.19;;;-2.29;73.04
22031;BME280;11179;52.106;21.024;2024-01-30T06:01:57;102174.72;;;-2.33;73.01
22031;BME280;11179;52.106;21.024;2024-01-30T06:04:23;102181.81;;;-2.32;73.07
22031;BME280;11179;52.106;21.024;2024-01-30T06:06:48;102176.31;;;-2.31;73.18
22031;BME280;11179;52.106;21.024;2024-01-30T06:09:13;102186.81;;;-2.28;73.40
22031;BME280;11179;52.106;21.024;2024-01-30T06:11:39;102174.91;;;-2.25;73.17
22031;BME280;11179;52.106;21.024;2024-01-30T06:14:04;102178.09;;;-2.20;73.15
22031;BME280;11179;52.106;21.024;2024-01-30T06:16:30;102181.38;;;-2.17;73.14
22031;BME280;11179;52.106;21.024;2024-01-30T06:18:56;102175.00;;;-2.16;73.34
22031;BME280;11179;52.106;21.024;2024-01-30T06:21:22;102169.22;;;-2.11;73.30
22031;BME280;11179;52.106;21.024;2024-01-30T06:23:47;102178.75;;;-2.07;73.15
22031;BME280;11179;52.106;21.024;2024-01-30T06:26:12;102172.13;;;-2.03;73.12
22031;BME280;11179;52.106;21.024;2024-01-30T06:28:38;102170.84;;;-1.99;73.24
22031;BME280;11179;52.106;21.024;2024-01-30T06:31:03;102171.31;;;-1.94;73.40
22031;BME280;11179;52.106;21.024;2024-01-30T06:33:28;102162.13;;;-1.91;73.40
22031;BME280;11179;52.106;21.024;2024-01-30T06:35:54;102160.72;;;-1.86;73.29
22031;BME280;11179;52.106;21.024;2024-01-30T06:38:19;102160.19;;;-1.80;73.35
22031;BME280;11179;52.106;21.024;2024-01-30T06:40:44;102155.09;;;-1.73;73.51
22031;BME280;11179;52.106;21.024;2024-01-30T06:43:10;102173.59;;;-1.59;73.40
22031;BME280;11179;52.106;21.024;2024-01-30T06:45:36;102159.47;;;-1.51;73.42
22031;BME280;11179;52.106;21.024;2024-01-30T06:48:02;102163.31;;;-1.44;73.42
22031;BME280;11179;52.106;21.024;2024-01-30T06:50:27;102165.22;;;-1.35;73.42
22031;BME280;11179;52.106;21.024;2024-01-30T06:52:53;102163.78;;;-1.30;73.30
22031;BME280;11179;52.106;21.024;2024-01-30T06:55:18;102159.56;;;-1.22;73.51
22031;BME280;11179;52.106;21.024;2024-01-30T06:57:43;102175.19;;;-1.07;73.38
22031;BME280;11179;52.106;21.024;2024-01-30T07:00:09;102169.56;;;-0.94;73.54
22031;BME280;11179;52.106;21.024;2024-01-30T07:02:35;102168.44;;;-0.72;73.37
22031;BME280;11179;52.106;21.024;2024-01-30T07:05:00;102167.03;;;-0.57;73.37
22031;BME280;11179;52.106;21.024;2024-01-30T07:07:25;102168.19;;;-0.40;73.03
22031;BME280;11179;52.106;21.024;2024-01-30T07:09:51;102171.28;;;-0.26;73.00
22031;BME280;11179;52.106;21.024;2024-01-30T07:12:22;102167.41;;;-0.13;72.91
22031;BME280;11179;52.106;21.024;2024-01-30T07:14:47;102167.84;;;-0.08;72.41
22031;BME280;11179;52.106;21.024;2024-01-30T07:17:13;102163.00;;;-0.05;72.29
22031;BME280;11179;52.106;21.024;2024-01-30T07:19:38;102169.13;;;-0.03;72.60
22031;BME280;11179;52.106;21.024;2024-01-30T07:22:04;102175.63;;;0.04;72.39
22031;BME280;11179;52.106;21.024;2024-01-30T07:24:29;102177.63;;;0.12;72.24
22031;BME280;11179;52.106;21.024;2024-01-30T07:26:54;102171.06;;;0.24;72.33
22031;BME280;11179;52.106;21.024;2024-01-30T07:29:20;102174.13;;;0.39;72.13
22031;BME280;11179;52.106;21.024;2024-01-30T07:31:45;102171.03;;;0.61;71.80
22031;BME280;11179;52.106;21.024;2024-01-30T07:34:11;102177.16;;;0.91;71.80
22031;BME280;11179;52.106;21.024;2024-01-30T07:36:36;102161.34;;;1.13;71.41
22031;BME280;11179;52.106;21.024;2024-01-30T07:39:01;102168.56;;;1.40;71.12
22031;BME280;11179;52.106;21.024;2024-01-30T07:41:27;102164.16;;;1.57;70.85
22031;BME280;11179;52.106;21.024;2024-01-30T07:43:53;102166.06;;;1.82;70.47
22031;BME280;11179;52.106;21.024;2024-01-30T07:46:18;102155.66;;;1.96;70.25
22031;BME280;11179;52.106;21.024;2024-01-30T07:48:44;102162.41;;;2.17;70.02
22031;BME280;11179;52.106;21.024;2024-01-30T07:51:09;102161.66;;;2.33;69.83
22031;BME280;11179;52.106;21.024;2024-01-30T07:53:34;102165.47;;;2.48;69.56
22031;BME280;11179;52.106;21.024;2024-01-30T07:56:00;102158.44;;;2.63;69.23
22031;BME280;11179;52.106;21.024;2024-01-30T07:58:25;102155.94;;;2.78;68.89
22031;BME280;11179;52.106;21.024;2024-01-30T08:00:52;102153.94;;;2.88;68.45
22031;BME280;11179;52.106;21.024;2024-01-30T08:03:18;102170.44;;;3.03;68.03
22031;BME280;11179;52.106;21.024;2024-01-30T08:05:43;102160.28;;;3.13;68.07
22031;BME280;11179;52.106;21.024;2024-01-30T08:08:09;102154.22;;;3.27;67.29
22031;BME280;11179;52.106;21.024;2024-01-30T08:10:34;102163.91;;;3.38;66.87
22031;BME280;11179;52.106;21.024;2024-01-30T08:12:59;102153.88;;;3.47;66.36
22031;BME280;11179;52.106;21.024;2024-01-30T08:15:25;102152.88;;;3.56;66.12
22031;BME280;11179;52.106;21.024;2024-01-30T08:17:50;102150.84;;;3.66;65.71
22031;BME280;11179;52.106;21.024;2024-01-30T08:20:20;102144.91;;;3.70;65.25
22031;BME280;11179;52.106;21.024;2024-01-30T08:22:46;102144.56;;;3.82;64.61
22031;BME280;11179;52.106;21.024;2024-01-30T08:25:11;102147.13;;;3.91;64.26
22031;BME280;11179;52.106;21.024;2024-01-30T08:27:36;102141.66;;;3.99;64.03
22031;BME280;11179;52.106;21.024;2024-01-30T08:30:05;102143.69;;;4.14;63.93
22031;BME280;11179;52.106;21.024;2024-01-30T08:32:30;102144.72;;;4.21;63.39
22031;BME280;11179;52.106;21.024;2024-01-30T08:34:55;102135.53;;;4.22;62.64
22031;BME280;11179;52.106;21.024;2024-01-30T08:37:21;102138.94;;;4.24;62.54
22031;BME280;11179;52.106;21.024;2024-01-30T08:39:48;102141.28;;;4.27;62.04
22031;BME280;11179;52.106;21.024;2024-01-30T08:42:13;102131.09;;;4.29;61.92
22031;BME280;11179;52.106;21.024;2024-01-30T08:44:39;102132.94;;;4.36;61.32
22031;BME280;11179;52.106;21.024;2024-01-30T08:47:04;102133.44;;;4.40;61.68
22031;BME280;11179;52.106;21.024;2024-01-30T08:49:29;102131.72;;;4.47;61.00
22031;BME280;11179;52.106;21.024;2024-01-30T08:51:55;102129.84;;;4.48;61.06
22031;BME280;11179;52.106;21.024;2024-01-30T08:54:20;102139.16;;;4.53;60.58
22031;BME280;11179;52.106;21.024;2024-01-30T08:56:45;102136.94;;;4.57;60.37
22031;BME280;11179;52.106;21.024;2024-01-30T08:59:11;102134.22;;;4.57;60.06
22031;BME280;11179;52.106;21.024;2024-01-30T09:01:36;102134.38;;;4.63;59.90
22031;BME280;11179;52.106;21.024;2024-01-30T09:04:01;102131.28;;;4.66;60.09
22031;BME280;11179;52.106;21.024;2024-01-30T09:06:27;102131.63;;;4.71;59.76
22031;BME280;11179;52.106;21.024;2024-01-30T09:08:53;102145.38;;;4.78;59.83
22031;BME280;11179;52.106;21.024;2024-01-30T09:11:19;102142.09;;;4.83;59.85
22031;BME280;11179;52.106;21.024;2024-01-30T09:13:44;102132.22;;;4.90;59.49
22031;BME280;11179;52.106;21.024;2024-01-30T09:16:09;102133.53;;;4.94;59.56
22031;BME280;11179;52.106;21.024;2024-01-30T09:18:35;102141.34;;;4.97;58.79
22031;BME280;11179;52.106;21.024;2024-01-30T09:21:00;102137.75;;;5.04;58.80
22031;BME280;11179;52.106;21.024;2024-01-30T09:23:27;102126.97;;;5.11;59.14
22031;BME280;11179;52.106;21.024;2024-01-30T09:25:53;102140.19;;;5.22;58.62
22031;BME280;11179;52.106;21.024;2024-01-30T09:28:18;102125.53;;;5.23;58.21
22031;BME280;11179;52.106;21.024;2024-01-30T09:30:43;102139.97;;;5.32;58.31
22031;BME280;11179;52.106;21.024;2024-01-30T09:33:09;102118.81;;;5.34;58.12
22031;BME280;11179;52.106;21.024;2024-01-30T09:35:35;102136.16;;;5.41;57.49
22031;BME280;11179;52.106;21.024;2024-01-30T09:38:01;102132.25;;;5.35;57.24
22031;BME280;11179;52.106;21.024;2024-01-30T09:40:27;102130.88;;;5.39;57.18
22031;BME280;11179;52.106;21.024;2024-01-30T09:42:53;102130.22;;;5.37;56.79
22031;BME280;11179;52.106;21.024;2024-01-30T09:45:19;102130.34;;;5.44;56.95
22031;BME280;11179;52.106;21.024;2024-01-30T09:47:45;102125.31;;;5.56;56.67
22031;BME280;11179;52.106;21.024;2024-01-30T09:50:12;102121.00;;;5.61;56.53
22031;BME280;11179;52.106;21.024;2024-01-30T09:52:38;102113.97;;;5.67;56.36
22031;BME280;11179;52.106;21.024;2024-01-30T09:55:05;102121.03;;;5.76;56.15
22031;BME280;11179;52.106;21.024;2024-01-30T09:57:30;102106.75;;;5.74;55.89
22031;BME280;11179;52.106;21.024;2024-01-30T09:59:56;102107.03;;;5.79;55.56
22031;BME280;11179;52.106;21.024;2024-01-30T10:02:21;102100.22;;;5.83;55.52
22031;BME280;11179;52.106;21.024;2024-01-30T10:04:48;102105.47;;;5.84;55.57
22031;BME280;11179;52.106;21.024;2024-01-30T10:07:15;102098.59;;;5.88;55.12
22031;BME280;11179;52.106;21.024;2024-01-30T10:09:40;102102.19;;;5.89;54.74
22031;BME280;11179;52.106;21.024;2024-01-30T10:12:06;102099.94;;;5.93;54.54
22031;BME280;11179;52.106;21.024;2024-01-30T10:14:31;102100.22;;;5.98;54.43
22031;BME280;11179;52.106;21.024;2024-01-30T10:17:01;102101.72;;;6.00;54.27
22031;BME280;11179;52.106;21.024;2024-01-30T10:19:26;102104.25;;;6.02;54.50
22031;BME280;11179;52.106;21.024;2024-01-30T10:21:51;102100.50;;;6.03;54.57
22031;BME280;11179;52.106;21.024;2024-01-30T10:24:17;102098.44;;;6.05;54.51
22031;BME280;11179;52.106;21.024;2024-01-30T10:26:46;102082.94;;;6.05;54.36
22031;BME280;11179;52.106;21.024;2024-01-30T10:29:12;102087.66;;;6.11;54.14
22031;BME280;11179;52.106;21.024;2024-01-30T10:31:37;102081.13;;;6.12;53.81
22031;BME280;11179;52.106;21.024;2024-01-30T10:34:02;102075.69;;;6.12;53.38
22031;BME280;11179;52.106;21.024;2024-01-30T10:36:29;102072.56;;;6.15;53.33
22031;BME280;11179;52.106;21.024;2024-01-30T10:38:59;102074.75;;;6.20;53.23
22031;BME280;11179;52.106;21.024;2024-01-30T10:41:31;102076.44;;;6.21;53.14
22031;BME280;11179;52.106;21.024;2024-01-30T10:44:24;102068.09;;;6.22;53.05
22031;BME280;11179;52.106;21.024;2024-01-30T10:46:56;102068.09;;;6.22;52.76
22031;BME280;11179;52.106;21.024;2024-01-30T10:49:25;102069.78;;;6.23;52.53
22031;BME280;11179;52.106;21.024;2024-01-30T10:51:52;102056.13;;;6.23;52.57
22031;BME280;11179;52.106;21.024;2024-01-30T10:54:18;102055.47;;;6.21;52.18
22031;BME280;11179;52.106;21.024;2024-01-30T10:56:45;102056.78;;;6.26;52.26
22031;BME280;11179;52.106;21.024;2024-01-30T10:59:11;102044.63;;;6.28;52.12
22031;BME280;11179;52.106;21.024;2024-01-30T11:01:38;102043.41;;;6.31;52.00
22031;BME280;11179;52.106;21.024;2024-01-30T11:04:04;102045.16;;;6.32;51.79
22031;BME280;11179;52.106;21.024;2024-01-30T11:06:29;102040.53;;;6.32;52.08
22031;BME280;11179;52.106;21.024;2024-01-30T11:09:02;102038.47;;;6.34;51.79
22031;BME280;11179;52.106;21.024;2024-01-30T11:12:12;102044.19;;;6.39;51.71
22031;BME280;11179;52.106;21.024;2024-01-30T11:14:37;102031.59;;;6.38;51.85
22031;BME280;11179;52.106;21.024;2024-01-30T11:17:05;102033.09;;;6.41;51.98
22031;BME280;11179;52.106;21.024;2024-01-30T11:19:31;102028.94;;;6.45;51.39
22031;BME280;11179;52.106;21.024;2024-01-30T11:21:57;102032.34;;;6.47;51.58
22031;BME280;11179;52.106;21.024;2024-01-30T11:24:25;102030.63;;;6.46;51.11
22031;BME280;11179;52.106;21.024;2024-01-30T11:26:58;102027.72;;;6.47;51.08
22031;BME280;11179;52.106;21.024;2024-01-30T11:29:29;102018.50;;;6.48;50.96
22031;BME280;11179;52.106;21.024;2024-01-30T11:31:59;102018.13;;;6.51;51.07
22031;BME280;11179;52.106;21.024;2024-01-30T11:34:24;102014.16;;;6.54;50.61
22031;BME280;11179;52.106;21.024;2024-01-30T11:36:56;102015.00;;;6.54;50.63
22031;BME280;11179;52.106;21.024;2024-01-30T11:39:25;102015.66;;;6.56;50.98
22031;BME280;11179;52.106;21.024;2024-01-30T11:41:52;102011.03;;;6.57;50.58
22031;BME280;11179;52.106;21.024;2024-01-30T11:44:19;102007.09;;;6.60;50.32
22031;BME280;11179;52.106;21.024;2024-01-30T11:46:46;102006.53;;;6.64;50.37
22031;BME280;11179;52.106;21.024;2024-01-30T11:49:12;102007.16;;;6.66;50.55
22031;BME280;11179;52.106;21.024;2024-01-30T11:51:37;102006.97;;;6.68;50.26
22031;BME280;11179;52.106;21.024;2024-01-30T11:54:03;101998.19;;;6.72;50.17
22031;BME280;11179;52.106;21.024;2024-01-30T11:56:28;101995.28;;;6.74;50.40
22031;BME280;11179;52.106;21.024;2024-01-30T11:58:53;102004.13;;;6.76;50.03
22031;BME280;11179;52.106;21.024;2024-01-30T12:01:20;101991.31;;;6.76;50.24
22031;BME280;11179;52.106;21.024;2024-01-30T12:03:51;101997.88;;;6.82;49.84
22031;BME280;11179;52.106;21.024;2024-01-30T12:06:17;101992.59;;;6.80;49.64
22031;BME280;11179;52.106;21.024;2024-01-30T12:08:42;101991.75;;;6.80;49.33
22031;BME280;11179;52.106;21.024;2024-01-30T12:11:07;101986.28;;;6.80;49.45
22031;BME280;11179;52.106;21.024;2024-01-30T12:13:33;101981.88;;;6.79;48.67
22031;BME280;11179;52.106;21.024;2024-01-30T12:16:00;101983.97;;;6.77;48.85
22031;BME280;11179;52.106;21.024;2024-01-30T12:18:26;101982.28;;;6.76;49.03
22031;BME280;11179;52.106;21.024;2024-01-30T12:21:00;101983.97;;;6.77;48.96
22031;BME280;11179;52.106;21.024;2024-01-30T12:23:27;101979.13;;;6.79;49.11
22031;BME280;11179;52.106;21.024;2024-01-30T12:25:52;101986.38;;;6.86;49.37
22031;BME280;11179;52.106;21.024;2024-01-30T12:28:19;101984.13;;;6.90;49.14
22031;BME280;11179;52.106;21.024;2024-01-30T12:30:45;101980.53;;;6.89;48.86
22031;BME280;11179;52.106;21.024;2024-01-30T12:33:16;101976.13;;;6.88;48.78
22031;BME280;11179;52.106;21.024;2024-01-30T12:35:45;101974.41;;;6.87;48.70
22031;BME280;11179;52.106;21.024;2024-01-30T12:38:11;101982.41;;;6.89;48.68